Time;durP1;ratioP1;P1;durP2;ratioP2;P2;SDS_P1;SDS_P2;PMS_P1;PMS_P2;Temp;Humidity;BMP_temperature;BMP_pressure;BME280_temperature;BME280_humidity;BME280_pressure;Samples;Min_cycle;Max_cycle;Signal;HPM_P1;HPM_P2
2023/03/15 00:00:46;;;;;;;;;9.00;9.00;;;;;9.93;100.00;101423.41;4972910;28;45327;-80
2023/03/15 00:03:13;;;;;;;;;8.33;7.67;;;;;9.87;100.00;101415.75;4972081;28;45407;-79
2023/03/15 00:05:42;;;;;;;;;9.00;9.00;;;;;9.85;100.00;101426.78;5004764;28;45605;-80
2023/03/15 00:08:07;;;;;;;;;12.00;8.00;;;;;9.65;100.00;101431.09;4986888;28;45346;-80
2023/03/15 00:10:33;;;;;;;;;8.00;7.00;;;;;9.65;100.00;101430.25;4973666;28;45465;-80
2023/03/15 00:12:58;;;;;;;;;9.00;8.00;;;;;9.69;100.00;101416.31;4971760;28;45382;-79
2023/03/15 00:15:23;;;;;;;;;8.00;8.00;;;;;9.72;100.00;101426.03;4972611;28;45054;-80
2023/03/15 00:17:49;;;;;;;;;6.33;6.33;;;;;9.67;100.00;101407.44;4972560;28;45510;-80
2023/03/15 00:20:14;;;;;;;;;12.00;11.33;;;;;9.76;100.00;101422.09;4993340;28;46507;-80
2023/03/15 00:22:40;;;;;;;;;7.33;7.33;;;;;9.79;100.00;101415.56;4978502;28;45321;-80
2023/03/15 00:25:06;;;;;;;;;8.33;8.00;;;;;9.85;100.00;101417.75;4995782;28;45333;-80
2023/03/15 00:27:32;;;;;;;;;8.00;6.33;;;;;9.86;100.00;101423.06;4985402;28;45422;-78
2023/03/15 00:29:57;;;;;;;;;13.00;11.33;;;;;9.84;100.00;101433.19;4991699;28;45608;-78
2023/03/15 00:32:22;;;;;;;;;11.00;7.00;;;;;9.76;100.00;101422.97;4984384;28;46601;-79
2023/03/15 00:34:48;;;;;;;;;6.67;6.67;;;;;9.82;100.00;101421.59;4990460;28;44695;-79
2023/03/15 00:37:18;;;;;;;;;12.33;11.00;;;;;9.90;100.00;101419.09;4980909;28;45357;-78
2023/03/15 00:39:45;;;;;;;;;13.00;11.33;;;;;9.94;100.00;101427.84;4991210;28;45267;-79
2023/03/15 00:42:11;;;;;;;;;10.00;9.67;;;;;9.81;100.00;101414.44;4985347;28;44746;-78
2023/03/15 00:44:36;;;;;;;;;8.00;8.00;;;;;9.87;100.00;101423.91;4983178;28;45432;-79
2023/03/15 00:47:01;;;;;;;;;11.67;8.00;;;;;9.88;100.00;101414.78;5020762;28;44857;-80
2023/03/15 00:49:27;;;;;;;;;8.33;8.33;;;;;9.92;100.00;101430.69;4981450;28;46259;-78
2023/03/15 00:51:54;;;;;;;;;11.00;9.33;;;;;9.77;100.00;101419.25;4986954;28;47267;-80
2023/03/15 00:54:22;;;;;;;;;11.00;9.33;;;;;9.77;100.00;101430.13;4994276;28;44715;-80
2023/03/15 00:56:48;;;;;;;;;11.67;8.00;;;;;9.70;100.00;101438.88;4993087;28;45201;-78
2023/03/15 00:59:13;;;;;;;;;10.00;7.33;;;;;9.61;100.00;101424.22;4991088;28;45163;-78
2023/03/15 01:01:43;;;;;;;;;11.00;7.00;;;;;9.87;100.00;101440.19;4984380;28;45506;-79
2023/03/15 01:04:10;;;;;;;;;11.33;8.00;;;;;9.76;100.00;101443.81;4979517;28;45383;-79
2023/03/15 01:06:36;;;;;;;;;8.00;8.00;;;;;9.75;100.00;101447.50;5017599;28;45508;-79
2023/03/15 01:09:01;;;;;;;;;11.33;10.67;;;;;9.66;100.00;101438.25;4988924;28;45584;-78
2023/03/15 01:11:27;;;;;;;;;13.00;8.00;;;;;9.77;100.00;101434.69;4986913;28;45183;-79
2023/03/15 01:13:55;;;;;;;;;8.67;7.00;;;;;9.66;100.00;101440.09;4998076;28;45258;-79
2023/03/15 01:16:21;;;;;;;;;9.33;6.00;;;;;9.72;100.00;101445.88;4986697;28;44725;-79
2023/03/15 01:18:47;;;;;;;;;7.33;6.67;;;;;9.74;100.00;101451.19;4983336;28;45702;-78
2023/03/15 01:21:14;;;;;;;;;10.33;7.33;;;;;9.72;100.00;101459.47;4966570;28;45504;-77
2023/03/15 01:23:40;;;;;;;;;8.33;8.00;;;;;9.63;100.00;101453.94;4967590;28;45499;-77
2023/03/15 01:26:09;;;;;;;;;8.00;7.33;;;;;9.67;100.00;101455.41;4970270;28;45520;-78
2023/03/15 01:28:34;;;;;;;;;8.00;8.00;;;;;9.65;100.00;101452.81;4979100;28;45463;-78
2023/03/15 01:31:00;;;;;;;;;6.67;6.67;;;;;9.67;100.00;101450.84;4968277;28;45267;-78
2023/03/15 01:33:25;;;;;;;;;8.00;8.00;;;;;9.60;100.00;101433.34;4967555;28;45399;-78
2023/03/15 01:36:03;;;;;;;;;8.00;8.00;;;;;9.68;100.00;101459.84;4969031;28;45309;-78
2023/03/15 01:38:30;;;;;;;;;12.00;9.67;;;;;9.56;100.00;101442.72;4975444;28;47203;-77
2023/03/15 01:40:55;;;;;;;;;9.67;9.33;;;;;9.53;100.00;101431.25;4965453;28;45345;-78
2023/03/15 01:43:23;;;;;;;;;5.00;4.33;;;;;9.54;100.00;101469.13;4965903;28;45237;-78
2023/03/15 01:46:00;;;;;;;;;11.00;8.00;;;;;9.61;100.00;101466.75;4972575;28;45489;-78
2023/03/15 01:48:37;;;;;;;;;7.67;7.00;;;;;9.69;100.00;101467.88;4965422;28;46656;-78
2023/03/15 01:51:10;;;;;;;;;7.33;7.33;;;;;9.62;100.00;101446.78;4980631;28;45358;-77
2023/03/15 01:53:38;;;;;;;;;7.00;7.00;;;;;9.58;100.00;101467.88;4964636;28;45353;-78
2023/03/15 01:56:05;;;;;;;;;8.00;6.00;;;;;9.63;100.00;101468.38;4965895;28;45443;-78
2023/03/15 01:58:32;;;;;;;;;7.33;7.33;;;;;9.65;100.00;101462.78;4965213;28;45462;-78
2023/03/15 02:00:57;;;;;;;;;8.00;6.00;;;;;9.65;100.00;101466.38;4966343;28;45361;-78
2023/03/15 02:03:29;;;;;;;;;7.33;6.00;;;;;9.59;100.00;101452.44;4965618;28;45474;-78
2023/03/15 02:06:03;;;;;;;;;6.67;5.67;;;;;9.67;100.00;101468.97;4981174;28;45271;-78
2023/03/15 02:08:32;;;;;;;;;6.00;6.00;;;;;9.70;100.00;101468.72;4980442;28;46249;-78
2023/03/15 02:11:00;;;;;;;;;8.00;8.00;;;;;9.66;100.00;101469.97;4964287;28;45833;-78
2023/03/15 02:13:29;;;;;;;;;6.00;6.00;;;;;9.54;100.00;101469.13;4965618;28;45395;-78
2023/03/15 02:15:55;;;;;;;;;8.33;8.33;;;;;9.45;100.00;101472.56;4966115;28;45342;-78
2023/03/15 02:18:21;;;;;;;;;5.67;5.67;;;;;9.41;100.00;101464.81;4965425;28;46846;-78
2023/03/15 02:21:01;;;;;;;;;13.67;11.33;;;;;9.37;100.00;101470.47;4965776;28;45634;-78
2023/03/15 02:23:28;;;;;;;;;5.00;2.67;;;;;9.33;100.00;101457.28;4965981;28;45328;-78
2023/03/15 02:26:23;;;;;;;;;6.00;6.00;;;;;9.36;100.00;101468.72;4979728;28;45374;-79
2023/03/15 02:28:50;;;;;;;;;13.00;6.67;;;;;9.43;100.00;101460.09;4965445;28;46150;-78
2023/03/15 02:31:16;;;;;;;;;3.00;3.00;;;;;9.48;100.00;101456.06;4966334;28;45324;-79
2023/03/15 02:33:45;;;;;;;;;7.33;6.00;;;;;9.38;100.00;101455.91;4965922;28;45568;-78
2023/03/15 02:36:24;;;;;;;;;7.33;7.33;;;;;9.43;100.00;101443.81;4967983;28;45662;-78
2023/03/15 02:38:51;;;;;;;;;7.33;6.67;;;;;9.57;100.00;101462.59;4979209;28;45460;-78
2023/03/15 02:41:28;;;;;;;;;6.00;6.00;;;;;9.53;100.00;101471.94;4980335;28;45333;-78
2023/03/15 02:44:10;;;;;;;;;6.00;6.00;;;;;9.54;100.00;101460.09;4977595;28;45292;-78
2023/03/15 02:46:36;;;;;;;;;7.67;6.00;;;;;9.38;100.00;101434.22;4966469;28;45258;-78
2023/03/15 02:49:02;;;;;;;;;5.33;5.33;;;;;9.43;100.00;101454.66;4965986;28;46368;-78
2023/03/15 02:51:29;;;;;;;;;5.67;5.67;;;;;9.36;100.00;101459.72;4965631;28;45297;-76
2023/03/15 02:53:54;;;;;;;;;6.00;6.00;;;;;9.26;100.00;101466.91;4965952;28;45446;-78
2023/03/15 02:56:20;;;;;;;;;8.00;7.67;;;;;9.33;100.00;101460.88;4964807;28;45279;-78
2023/03/15 02:58:45;;;;;;;;;5.67;5.67;;;;;9.34;100.00;101462.59;4971839;28;46563;-78
2023/03/15 03:01:15;;;;;;;;;11.00;9.00;;;;;9.29;100.00;101472.06;4971345;28;45400;-78
2023/03/15 03:03:41;;;;;;;;;10.00;6.67;;;;;9.27;100.00;101466.78;4980383;28;45319;-78
2023/03/15 03:06:07;;;;;;;;;10.00;10.00;;;;;9.28;100.00;101471.19;4964840;28;45441;-78
2023/03/15 03:08:33;;;;;;;;;7.00;7.00;;;;;9.27;100.00;101480.34;4977590;28;46526;-78
2023/03/15 03:10:58;;;;;;;;;10.33;7.00;;;;;9.21;100.00;101480.81;4963503;28;45271;-77
2023/03/15 03:13:24;;;;;;;;;1.00;1.00;;;;;9.20;100.00;101484.53;4965356;28;45453;-78
2023/03/15 03:15:57;;;;;;;;;7.33;6.00;;;;;9.06;100.00;101476.59;4964612;28;45529;-78
2023/03/15 03:18:25;;;;;;;;;6.00;6.00;;;;;9.21;100.00;101488.06;4964205;28;47134;-78
2023/03/15 03:20:56;;;;;;;;;5.33;5.33;;;;;9.20;100.00;101489.94;4965948;28;45384;-78
2023/03/15 03:23:24;;;;;;;;;5.33;5.33;;;;;9.11;100.00;101489.81;4974346;28;45321;-78
2023/03/15 03:25:50;;;;;;;;;7.33;6.00;;;;;9.06;100.00;101476.59;4964541;28;45539;-79
2023/03/15 03:28:15;;;;;;;;;6.33;5.67;;;;;9.06;100.00;101479.31;4980049;28;46408;-78
2023/03/15 03:30:41;;;;;;;;;7.33;3.67;;;;;9.07;100.00;101483.75;4965448;28;45418;-79
2023/03/15 03:33:06;;;;;;;;;6.00;5.67;;;;;9.09;100.00;101479.06;4965839;28;45444;-78
2023/03/15 03:35:31;;;;;;;;;7.00;5.00;;;;;9.09;100.00;101489.91;4978235;28;45582;-78
2023/03/15 03:37:57;;;;;;;;;5.67;5.67;;;;;9.10;100.00;101488.06;4997425;28;48185;-78
2023/03/15 03:40:22;;;;;;;;;6.00;5.67;;;;;9.05;100.00;101487.59;4966813;28;45396;-78
2023/03/15 03:42:47;;;;;;;;;7.50;5.00;;;;;9.09;100.00;101489.91;4976606;28;45468;-78
2023/03/15 03:45:12;;;;;;;;;8.00;6.00;;;;;9.02;100.00;101494.09;4966080;28;45476;-78
2023/03/15 03:47:38;;;;;;;;;6.67;6.33;;;;;9.05;100.00;101491.16;4965089;28;45503;-78
2023/03/15 03:50:03;;;;;;;;;6.00;5.00;;;;;9.09;100.00;101481.78;4963678;28;46028;-78
2023/03/15 03:52:29;;;;;;;;;6.00;6.00;;;;;8.99;100.00;101472.63;4972345;28;45190;-78
2023/03/15 03:54:55;;;;;;;;;7.00;5.00;;;;;9.05;100.00;101490.28;5001766;28;45273;-78
2023/03/15 03:57:20;;;;;;;;;9.67;5.33;;;;;8.95;100.00;101493.72;4979860;28;47348;-78
2023/03/15 03:59:45;;;;;;;;;7.33;6.00;;;;;8.96;100.00;101486.44;4965236;28;45257;-78
2023/03/15 04:02:11;;;;;;;;;2.33;2.00;;;;;9.04;100.00;101494.84;4965364;28;45243;-78
2023/03/15 04:04:39;;;;;;;;;6.67;6.67;;;;;8.92;100.00;101498.50;4977138;28;45345;-78
2023/03/15 04:07:05;;;;;;;;;7.33;3.67;;;;;9.02;100.00;101510.34;4972089;28;47466;-78
2023/03/15 04:09:30;;;;;;;;;7.00;5.33;;;;;9.02;100.00;101507.66;4968490;28;45356;-78
2023/03/15 04:11:56;;;;;;;;;8.00;6.00;;;;;9.05;100.00;101511.97;4964049;28;45279;-78
2023/03/15 04:14:21;;;;;;;;;7.00;6.00;;;;;9.02;100.00;101504.94;4964051;28;45338;-78
2023/03/15 04:16:46;;;;;;;;;6.00;5.33;;;;;9.03;100.00;101514.78;4965033;28;45380;-78
2023/03/15 04:19:12;;;;;;;;;5.67;5.00;;;;;9.08;100.00;101506.28;4964943;28;48989;-78
2023/03/15 04:21:37;;;;;;;;;7.67;6.67;;;;;9.04;100.00;101504.81;4987715;28;45292;-78
2023/03/15 04:24:03;;;;;;;;;6.00;6.00;;;;;9.05;100.00;101506.56;4960646;28;45339;-78
2023/03/15 04:26:29;;;;;;;;;7.00;5.00;;;;;8.98;100.00;101495.34;4975373;28;45471;-78
2023/03/15 04:28:56;;;;;;;;;4.33;4.33;;;;;8.99;100.00;101507.88;4963476;28;45291;-78
2023/03/15 04:31:26;;;;;;;;;6.67;6.67;;;;;8.92;100.00;101493.06;4964783;28;45258;-78
2023/03/15 04:33:52;;;;;;;;;8.67;5.33;;;;;8.85;100.00;101478.28;4963578;28;45254;-78
2023/03/15 04:36:18;;;;;;;;;6.00;5.00;;;;;8.93;100.00;101489.38;4979449;28;48206;-78
2023/03/15 04:38:47;;;;;;;;;6.00;3.00;;;;;9.02;100.00;101502.22;4964278;28;45334;-78
2023/03/15 04:41:14;;;;;;;;;6.33;4.00;;;;;9.04;100.00;101502.13;4974104;28;45218;-78
2023/03/15 04:43:40;;;;;;;;;4.33;2.00;;;;;8.99;100.00;101486.19;4971248;28;45517;-77
2023/03/15 04:46:06;;;;;;;;;6.00;3.00;;;;;9.02;100.00;101495.94;4966874;28;45419;-78
2023/03/15 04:48:32;;;;;;;;;6.00;6.00;;;;;9.00;100.00;101501.47;4965765;28;45933;-78
2023/03/15 04:50:57;;;;;;;;;6.67;5.00;;;;;8.93;100.00;101492.09;4969705;28;45481;-78
2023/03/15 04:53:22;;;;;;;;;6.67;5.00;;;;;8.94;100.00;101512.78;4988948;28;45241;-79
2023/03/15 04:55:47;;;;;;;;;10.00;8.00;;;;;8.88;100.00;101502.44;4974945;28;49175;-77
2023/03/15 04:58:13;;;;;;;;;4.00;3.67;;;;;8.96;100.00;101514.41;4973112;28;45991;-80
2023/03/15 05:00:38;;;;;;;;;6.33;4.00;;;;;9.03;100.00;101512.09;4974125;28;45515;-78
2023/03/15 05:03:04;;;;;;;;;7.00;6.00;;;;;8.94;100.00;101501.97;4974863;28;45324;-78
2023/03/15 05:05:31;;;;;;;;;7.00;6.00;;;;;8.86;100.00;101523.38;4973419;28;45255;-79
2023/03/15 05:07:57;;;;;;;;;7.00;3.00;;;;;8.94;100.00;101531.78;4988449;28;45240;-78
2023/03/15 05:10:22;;;;;;;;;6.67;6.00;;;;;8.99;100.00;101534.97;4970928;28;45242;-80
2023/03/15 05:12:47;;;;;;;;;5.67;5.67;;;;;8.85;100.00;101532.47;4977629;28;45253;-78
2023/03/15 05:15:13;;;;;;;;;6.67;6.00;;;;;8.84;100.00;101530.78;4987307;28;45309;-78
2023/03/15 05:17:38;;;;;;;;;7.33;3.67;;;;;8.82;100.00;101535.44;4974643;28;45265;-77
2023/03/15 05:20:11;;;;;;;;;3.67;2.67;;;;;8.80;100.00;101534.69;4991667;28;45168;-77
2023/03/15 05:22:37;;;;;;;;;10.33;6.67;;;;;8.83;100.00;101534.47;4979752;28;45238;-79
2023/03/15 05:25:03;;;;;;;;;6.00;6.00;;;;;8.83;100.00;101540.75;4996623;28;47616;-78
2023/03/15 05:27:28;;;;;;;;;7.67;3.67;;;;;8.90;100.00;101541.13;4977708;28;45224;-78
2023/03/15 05:29:54;;;;;;;;;8.67;6.67;;;;;8.66;100.00;101510.50;4982980;28;45817;-81
2023/03/15 05:32:25;;;;;;;;;21.00;21.00;;;;;8.64;100.00;101502.47;4974762;28;46639;-78
2023/03/15 05:34:54;;;;;;;;;8.00;5.00;;;;;8.72;100.00;101520.84;4976752;28;46078;-78
2023/03/15 05:37:21;;;;;;;;;7.67;7.00;;;;;8.81;100.00;101536.41;4974221;28;45378;-78
2023/03/15 05:39:46;;;;;;;;;10.00;6.33;;;;;8.76;100.00;101525.06;4974182;28;45326;-79
2023/03/15 05:42:12;;;;;;;;;0.67;0.00;;;;;8.90;100.00;101543.84;4985145;28;45327;-77
2023/03/15 05:44:37;;;;;;;;;12.33;7.67;;;;;8.81;100.00;101539.13;4979230;28;47022;-78
2023/03/15 05:47:03;;;;;;;;;5.67;5.67;;;;;8.81;100.00;101536.41;4971947;28;45344;-78
2023/03/15 05:49:28;;;;;;;;;6.00;5.00;;;;;8.85;100.00;101543.31;4971093;28;45004;-78
2023/03/15 05:51:53;;;;;;;;;10.00;5.00;;;;;8.87;100.00;101549.47;4999724;28;45455;-78
2023/03/15 05:54:19;;;;;;;;;6.00;6.00;;;;;8.69;100.00;101521.13;4971066;28;45261;-79
2023/03/15 05:56:44;;;;;;;;;6.00;6.00;;;;;8.87;100.00;101544.94;4976433;28;45233;-78
2023/03/15 05:59:09;;;;;;;;;8.33;8.33;;;;;8.77;100.00;101519.50;4977976;28;45185;-79
2023/03/15 06:01:35;;;;;;;;;7.67;4.33;;;;;8.85;100.00;101535.19;4971279;28;45464;-79
2023/03/15 06:04:00;;;;;;;;;6.67;6.67;;;;;8.81;100.00;101537.28;4970328;28;45427;-79
2023/03/15 06:06:25;;;;;;;;;8.67;6.00;;;;;8.88;100.00;101551.22;4983033;28;45654;-79
2023/03/15 06:08:51;;;;;;;;;8.00;5.00;;;;;8.82;100.00;101546.28;4970063;28;45304;-78
2023/03/15 06:11:16;;;;;;;;;7.00;6.00;;;;;8.81;100.00;101549.97;4971661;28;44775;-79
2023/03/15 06:13:41;;;;;;;;;7.00;7.00;;;;;8.72;100.00;101553.38;4969798;28;45767;-80
2023/03/15 06:16:07;;;;;;;;;14.00;8.33;;;;;8.61;100.00;101535.25;4975012;28;45237;-80
2023/03/15 06:18:32;;;;;;;;;8.00;8.00;;;;;8.70;100.00;101533.66;4979865;28;45451;-79
2023/03/15 06:20:57;;;;;;;;;7.00;7.00;;;;;8.80;100.00;101549.09;4998836;28;45421;-79
2023/03/15 06:23:23;;;;;;;;;11.00;11.00;;;;;8.95;100.00;101566.03;4976234;28;48311;-80
2023/03/15 06:25:48;;;;;;;;;11.00;9.33;;;;;8.89;100.00;101561.94;4970684;28;45253;-79
2023/03/15 06:28:14;;;;;;;;;8.50;8.25;;;;;8.95;100.00;101569.59;4977667;28;45338;-79
2023/03/15 06:30:40;;;;;;;;;8.67;6.00;;;;;8.76;100.00;101555.75;4987131;28;45539;-81
2023/03/15 06:33:06;;;;;;;;;6.67;1.33;;;;;8.84;100.00;101558.69;4963062;28;48322;-79
2023/03/15 06:35:31;;;;;;;;;10.00;6.67;;;;;9.02;100.00;101561.00;4963243;28;45412;-80
2023/03/15 06:37:57;;;;;;;;;10.25;10.25;;;;;9.12;100.00;101562.88;4967685;28;45571;-80
2023/03/15 06:40:22;;;;;;;;;9.00;7.67;;;;;9.17;100.00;101562.50;4967772;28;45562;-79
2023/03/15 06:42:47;;;;;;;;;12.00;10.00;;;;;9.22;100.00;101565.72;4981258;28;47700;-79
2023/03/15 06:45:15;;;;;;;;;11.00;8.67;;;;;9.34;100.00;101573.78;4970019;28;45338;-79
2023/03/15 06:47:40;;;;;;;;;21.00;17.00;;;;;9.22;100.00;101563.00;4978344;28;45203;-79
2023/03/15 06:50:06;;;;;;;;;14.33;11.67;;;;;9.34;100.00;101578.34;4966608;28;45445;-79
2023/03/15 06:52:32;;;;;;;;;10.00;8.67;;;;;9.45;100.00;101586.47;4971146;28;48013;-79
2023/03/15 06:54:57;;;;;;;;;12.67;11.00;;;;;9.61;100.00;101575.28;4968792;28;45442;-78
2023/03/15 06:57:23;;;;;;;;;18.75;17.25;;;;;9.57;100.00;101580.06;4968287;28;45440;-80
2023/03/15 06:59:48;;;;;;;;;16.33;13.00;;;;;9.62;100.00;101575.16;4968198;28;45141;-78
2023/03/15 07:02:16;;;;;;;;;19.33;11.67;;;;;9.60;100.00;101584.41;4971496;28;45191;-79
2023/03/15 07:04:46;;;;;;;;;10.33;10.33;;;;;9.65;100.00;101582.19;4971194;28;45220;-79
2023/03/15 07:07:12;;;;;;;;;12.00;9.67;;;;;9.71;100.00;101570.88;4966073;28;45317;-80
2023/03/15 07:09:38;;;;;;;;;16.67;12.33;;;;;9.92;100.00;101587.28;4968283;28;45507;-81
2023/03/15 07:12:04;;;;;;;;;9.33;9.33;;;;;9.99;100.00;101578.50;4976344;28;46427;-79
2023/03/15 07:14:29;;;;;;;;;17.25;13.25;;;;;10.20;100.00;101583.19;4964761;28;45400;-81
2023/03/15 07:16:55;;;;;;;;;8.67;7.67;;;;;10.07;100.00;101578.75;4966612;28;45313;-79
2023/03/15 07:19:20;;;;;;;;;14.00;12.00;;;;;10.27;100.00;101587.13;4969366;28;45413;-78
2023/03/15 07:21:46;;;;;;;;;10.00;7.33;;;;;10.32;100.00;101593.03;4976660;28;47175;-80
2023/03/15 07:24:11;;;;;;;;;16.00;12.67;;;;;10.37;100.00;101602.56;4965361;28;47660;-80
2023/03/15 07:26:36;;;;;;;;;17.33;14.00;;;;;10.57;100.00;101591.88;4973022;28;45327;-80
2023/03/15 07:29:02;;;;;;;;;12.75;11.00;;;;;10.66;100.00;101608.31;4987755;28;45246;-80
2023/03/15 07:31:27;;;;;;;;;9.00;8.00;;;;;10.56;100.00;101590.16;4974350;28;45463;-79
2023/03/15 07:33:53;;;;;;;;;12.33;10.67;;;;;10.65;100.00;101601.13;4967464;28;45371;-84
2023/03/15 07:36:18;;;;;;;;;9.00;8.33;;;;;10.62;100.00;101606.81;4976908;28;45347;-79
2023/03/15 07:38:43;;;;;;;;;13.67;9.33;;;;;10.75;100.00;101615.66;4966050;28;45464;-80
2023/03/15 07:41:09;;;;;;;;;14.67;12.00;;;;;10.53;100.00;101602.13;4962596;28;47076;-82
2023/03/15 07:43:34;;;;;;;;;12.00;11.00;;;;;10.67;100.00;101610.00;4964913;28;45333;-81
2023/03/15 07:46:00;;;;;;;;;10.00;7.00;;;;;10.90;100.00;101600.78;4995732;28;45358;-82
2023/03/15 07:48:28;;;;;;;;;12.67;12.33;;;;;11.02;100.00;101615.22;5010212;28;45205;-80
2023/03/15 07:50:53;;;;;;;;;6.67;6.67;;;;;11.07;100.00;101601.22;4973582;28;46480;-80
2023/03/15 07:53:19;;;;;;;;;14.75;12.00;;;;;10.94;100.00;101590.53;4971918;28;45396;-81
2023/03/15 07:55:46;;;;;;;;;4.00;4.00;;;;;10.92;100.00;101623.28;4976636;28;45452;-79
2023/03/15 07:58:11;;;;;;;;;19.75;16.50;;;;;11.19;100.00;101609.16;4967495;28;45314;-80
2023/03/15 08:00:37;;;;;;;;;12.00;9.33;;;;;11.63;100.00;101623.50;4975470;28;45439;-80
2023/03/15 08:03:04;;;;;;;;;9.00;7.00;;;;;11.87;100.00;101617.81;5005318;28;45298;-80
2023/03/15 08:05:29;;;;;;;;;8.33;8.33;;;;;12.07;100.00;101635.97;4975419;28;45401;-80
2023/03/15 08:07:55;;;;;;;;;15.33;10.00;;;;;12.12;100.00;101621.94;4978241;28;45609;-81
2023/03/15 08:10:20;;;;;;;;;11.33;8.67;;;;;12.57;100.00;101633.25;4980399;28;45171;-81
2023/03/15 08:12:46;;;;;;;;;9.00;9.00;;;;;12.69;100.00;101637.63;4967660;28;45265;-79
2023/03/15 08:15:12;;;;;;;;;5.67;5.33;;;;;12.66;100.00;101648.78;4969799;28;45343;-80
2023/03/15 08:17:39;;;;;;;;;4.00;4.00;;;;;12.88;100.00;101643.09;5018830;28;45133;-79
2023/03/15 08:20:05;;;;;;;;;13.00;9.00;;;;;13.06;100.00;101646.84;4966010;28;45440;-78
2023/03/15 08:22:31;;;;;;;;;5.00;5.00;;;;;13.41;100.00;101654.50;4965953;28;45435;-79
2023/03/15 08:24:56;;;;;;;;;9.00;7.33;;;;;13.56;100.00;101658.50;4965198;28;45524;-78
2023/03/15 08:27:23;;;;;;;;;9.67;7.33;;;;;13.30;100.00;101654.63;4966227;28;45423;-80
2023/03/15 08:29:48;;;;;;;;;5.33;4.00;;;;;13.45;100.00;101658.63;4967393;28;45544;-78
2023/03/15 08:32:15;;;;;;;;;10.33;8.00;;;;;13.65;100.00;101670.44;4965464;28;45402;-79
2023/03/15 08:34:41;;;;;;;;;10.33;8.00;;;;;13.97;100.00;101659.97;4966377;28;45297;-80
2023/03/15 08:37:06;;;;;;;;;9.67;6.67;;;;;14.12;100.00;101665.84;4964010;28;45338;-81
2023/03/15 08:39:31;;;;;;;;;10.33;9.67;;;;;13.91;100.00;101671.50;4965320;28;47140;-81
2023/03/15 08:41:57;;;;;;;;;11.00;8.00;;;;;13.87;100.00;101659.16;4965667;28;45187;-79
2023/03/15 08:44:22;;;;;;;;;13.33;11.00;;;;;14.18;100.00;101667.09;4964483;28;45400;-79
2023/03/15 08:46:47;;;;;;;;;12.00;9.33;;;;;14.22;100.00;101669.41;4966492;28;45336;-80
2023/03/15 08:49:13;;;;;;;;;6.67;4.67;;;;;14.07;100.00;101670.03;4965924;28;47482;-79
2023/03/15 08:51:38;;;;;;;;;7.67;7.67;;;;;13.97;100.00;101664.59;4965152;28;45487;-78
2023/03/15 08:54:04;;;;;;;;;8.00;8.00;;;;;13.81;100.00;101646.06;4965672;28;45639;-79
2023/03/15 08:56:31;;;;;;;;;8.00;4.67;;;;;14.09;100.00;101673.50;4964528;28;45423;-78
2023/03/15 08:58:56;;;;;;;;;10.33;8.00;;;;;14.62;100.00;101666.34;4965160;28;46355;-79
2023/03/15 09:01:22;;;;;;;;;8.67;6.00;;;;;14.24;100.00;101661.06;4964090;28;46328;-80
2023/03/15 09:03:47;;;;;;;;;13.00;10.00;;;;;14.30;100.00;101674.13;4964710;28;45441;-80
2023/03/15 09:06:13;;;;;;;;;10.33;7.67;;;;;14.23;100.00;101681.22;4967058;28;45434;-80
2023/03/15 09:08:38;;;;;;;;;10.00;7.00;;;;;14.72;100.00;101683.59;4964085;28;47208;-80
2023/03/15 09:11:04;;;;;;;;;10.00;9.67;;;;;14.72;100.00;101683.59;4963163;28;45257;-81
2023/03/15 09:13:29;;;;;;;;;9.00;9.00;;;;;14.78;100.00;101693.06;4964304;28;45332;-79
2023/03/15 09:15:55;;;;;;;;;12.00;9.33;;;;;14.88;100.00;101693.88;4966501;28;45444;-81
2023/03/15 09:18:22;;;;;;;;;8.67;4.67;;;;;15.18;100.00;101681.72;4965417;28;45376;-76
2023/03/15 09:20:48;;;;;;;;;7.00;7.00;;;;;14.95;100.00;101684.03;4964949;28;45443;-79
2023/03/15 09:23:13;;;;;;;;;9.33;6.00;;;;;14.82;100.00;101675.34;4962835;28;45403;-79
2023/03/15 09:25:39;;;;;;;;;8.67;8.67;;;;;14.71;100.00;101681.88;4966094;28;45559;-80
2023/03/15 09:28:06;;;;;;;;;11.33;5.33;;;;;14.74;100.00;101676.09;4964279;28;45428;-79
2023/03/15 09:30:32;;;;;;;;;6.33;6.00;;;;;15.05;100.00;101689.44;4965113;28;45387;-80
2023/03/15 09:32:58;;;;;;;;;6.00;4.67;;;;;15.55;100.00;101676.09;4964655;28;45472;-80
2023/03/15 09:35:23;;;;;;;;;10.00;8.00;;;;;15.58;100.00;101682.13;4981257;28;45565;-80
2023/03/15 09:37:49;;;;;;;;;10.00;6.00;;;;;15.45;100.00;101681.63;4965934;28;45388;-80
2023/03/15 09:40:41;;;;;;;;;10.67;7.00;;;;;15.34;100.00;101695.53;4965726;28;45302;-80
2023/03/15 09:43:06;;;;;;;;;10.00;5.00;;;;;15.77;100.00;101691.19;4969831;28;45367;-79
2023/03/15 09:45:47;;;;;;;;;7.00;6.00;;;;;15.83;100.00;101690.53;4969528;28;45325;-79
2023/03/15 09:48:18;;;;;;;;;14.33;7.00;;;;;15.62;100.00;101688.16;4965255;28;45454;-79
2023/03/15 09:50:50;;;;;;;;;7.00;6.00;;;;;15.80;100.00;101668.91;4963670;28;45705;-80
2023/03/15 09:53:46;;;;;;;;;6.00;4.67;;;;;15.93;100.00;101678.44;4963940;28;45328;-81
2023/03/15 09:56:22;;;;;;;;;9.00;5.67;;;;;16.48;100.00;101685.47;4965065;28;45706;-80
2023/03/15 09:58:53;;;;;;;;;4.00;4.00;;;;;17.04;100.00;101666.47;4980467;28;46729;-80
2023/03/15 10:01:24;;;;;;;;;8.33;5.33;;;;;16.82;96.93;101680.81;4963312;28;45488;-79
2023/03/15 10:03:52;;;;;;;;;11.00;11.00;;;;;16.29;100.00;101689.31;4968584;28;45216;-82
2023/03/15 10:06:25;;;;;;;;;7.00;6.33;;;;;16.38;100.00;101679.22;4971359;28;45290;-81
2023/03/15 10:08:56;;;;;;;;;7.00;4.00;;;;;16.62;100.00;101673.91;4967180;28;47029;-84
2023/03/15 10:11:45;;;;;;;;;10.33;7.33;;;;;16.06;99.82;101671.69;4974770;28;45346;-82
2023/03/15 10:14:41;;;;;;;;;6.00;4.00;;;;;16.25;100.00;101683.28;4977072;28;45316;-84
2023/03/15 10:17:11;;;;;;;;;7.67;5.67;;;;;16.85;100.00;101676.91;4970773;28;45522;-83
2023/03/15 10:20:03;;;;;;;;;7.00;5.33;;;;;17.20;95.69;101678.53;4977738;28;45302;-85
2023/03/15 10:22:33;;;;;;;;;4.33;4.00;;;;;17.37;97.58;101683.03;4979342;28;45229;-84
2023/03/15 10:25:10;;;;;;;;;6.33;5.67;;;;;17.67;93.42;101673.28;4982545;28;45504;-84
2023/03/15 10:27:51;;;;;;;;;6.00;4.67;;;;;17.82;92.46;101680.66;4978006;28;45530;-82
2023/03/15 10:30:25;;;;;;;;;6.00;6.00;;;;;17.41;92.84;101673.41;4979235;28;45341;-85
2023/03/15 10:32:53;;;;;;;;;4.00;2.33;;;;;17.56;92.69;101660.69;4968683;28;45309;-82
2023/03/15 10:35:20;;;;;;;;;5.67;5.67;;;;;17.40;88.18;101671.69;4991995;28;45520;-84
2023/03/15 10:37:47;;;;;;;;;5.33;4.00;;;;;17.40;87.17;101663.44;4973070;28;45191;-83
2023/03/15 10:40:17;;;;;;;;;6.67;3.00;;;;;17.50;92.06;101661.38;4976415;28;45750;-83
2023/03/15 10:42:44;;;;;;;;;1.33;1.33;;;;;17.98;89.63;101659.66;4991121;28;45321;-82
2023/03/15 10:45:24;;;;;;;;;4.67;1.67;;;;;18.10;85.18;101659.13;4978922;28;44696;-84
2023/03/15 10:47:50;;;;;;;;;8.33;5.00;;;;;17.10;83.42;101645.72;4979569;28;44910;-83
2023/03/15 10:50:28;;;;;;;;;5.00;5.00;;;;;17.15;89.75;101656.22;4989448;28;46747;-82
2023/03/15 10:52:56;;;;;;;;;2.00;2.00;;;;;17.51;87.68;101652.13;4975141;28;45364;-82
2023/03/15 10:55:41;;;;;;;;;12.00;7.67;;;;;17.35;86.46;101655.72;4989146;28;45214;-83
2023/03/15 10:58:16;;;;;;;;;7.67;3.67;;;;;17.23;90.23;101653.47;4981260;28;45348;-83
2023/03/15 11:00:49;;;;;;;;;4.00;4.00;;;;;16.83;86.02;101641.38;5014428;28;47219;-82
2023/03/15 11:03:24;;;;;;;;;4.00;4.00;;;;;16.63;87.83;101653.66;4978552;28;45178;-81
2023/03/15 11:05:52;;;;;;;;;3.00;2.00;;;;;17.24;85.86;101644.22;4983193;28;45521;-84
2023/03/15 11:08:21;;;;;;;;;3.67;2.33;;;;;17.20;81.57;101649.19;4975633;28;45411;-82
2023/03/15 11:10:55;;;;;;;;;6.33;1.00;;;;;17.28;79.93;101646.44;4990795;28;47395;-83
2023/03/15 11:13:24;;;;;;;;;3.33;2.00;;;;;17.26;86.46;101644.88;4959917;28;45410;-82
2023/03/15 11:16:00;;;;;;;;;10.00;7.67;;;;;17.25;81.04;101645.91;4968659;28;45259;-84
2023/03/15 11:18:30;;;;;;;;;4.33;1.33;;;;;17.00;80.44;101656.88;4978390;28;45231;-82
2023/03/15 11:20:56;;;;;;;;;6.00;4.00;;;;;17.32;80.02;101644.19;4976601;28;45214;-83